sensor_id;sensor_type;location;lat;lon;timestamp;P1;durP1;ratioP1;P2;durP2;ratioP2
71475;SDS011;59286;59.274;17.974;2023-04-26T00:02:21;124.40;;;19.83;;
71475;SDS011;59286;59.274;17.974;2023-04-26T00:04:50;248.25;;;27.00;;
71475;SDS011;59286;59.274;17.974;2023-04-26T00:09:52;218.52;;;23.52;;
71475;SDS011;59286;59.274;17.974;2023-04-26T00:12:18;107.53;;;19.58;;
71475;SDS011;59286;59.274;17.974;2023-04-26T00:14:43;212.95;;;21.60;;
71475;SDS011;59286;59.274;17.974;2023-04-26T00:17:08;393.02;;;25.80;;
71475;SDS011;59286;59.274;17.974;2023-04-26T00:19:34;264.70;;;23.95;;
71475;SDS011;59286;59.274;17.974;2023-04-26T00:22:01;182.27;;;19.58;;
71475;SDS011;59286;59.274;17.974;2023-04-26T00:24:26;263.67;;;23.50;;
71475;SDS011;59286;59.274;17.974;2023-04-26T00:26:53;111.88;;;17.95;;
71475;SDS011;59286;59.274;17.974;2023-04-26T00:29:19;244.73;;;19.67;;
71475;SDS011;59286;59.274;17.974;2023-04-26T00:31:45;242.75;;;21.83;;
71475;SDS011;59286;59.274;17.974;2023-04-26T00:34:10;201.10;;;20.88;;
71475;SDS011;59286;59.274;17.974;2023-04-26T00:36:35;308.13;;;25.80;;
71475;SDS011;59286;59.274;17.974;2023-04-26T00:39:01;195.07;;;20.20;;
71475;SDS011;59286;59.274;17.974;2023-04-26T00:41:26;320.77;;;27.27;;
71475;SDS011;59286;59.274;17.974;2023-04-26T00:43:52;185.13;;;23.92;;
71475;SDS011;59286;59.274;17.974;2023-04-26T00:46:17;123.43;;;19.88;;
71475;SDS011;59286;59.274;17.974;2023-04-26T00:48:42;156.38;;;22.02;;
71475;SDS011;59286;59.274;17.974;2023-04-26T00:51:08;279.70;;;32.30;;
71475;SDS011;59286;59.274;17.974;2023-04-26T00:53:33;111.03;;;22.15;;
71475;SDS011;59286;59.274;17.974;2023-04-26T00:55:59;183.10;;;25.95;;
71475;SDS011;59286;59.274;17.974;2023-04-26T00:58:26;194.80;;;31.15;;
71475;SDS011;59286;59.274;17.974;2023-04-26T01:00:51;59.05;;;16.83;;
71475;SDS011;59286;59.274;17.974;2023-04-26T01:03:17;77.75;;;20.45;;
71475;SDS011;59286;59.274;17.974;2023-04-26T01:05:44;140.10;;;29.23;;
71475;SDS011;59286;59.274;17.974;2023-04-26T01:08:10;97.25;;;27.98;;
71475;SDS011;59286;59.274;17.974;2023-04-26T01:10:35;58.58;;;19.42;;
71475;SDS011;59286;59.274;17.974;2023-04-26T01:13:01;159.50;;;31.30;;
71475;SDS011;59286;59.274;17.974;2023-04-26T01:15:27;118.55;;;28.00;;
71475;SDS011;59286;59.274;17.974;2023-04-26T01:17:54;144.68;;;31.55;;
71475;SDS011;59286;59.274;17.974;2023-04-26T01:20:20;107.32;;;28.02;;
71475;SDS011;59286;59.274;17.974;2023-04-26T01:22:46;83.32;;;26.75;;
71475;SDS011;59286;59.274;17.974;2023-04-26T01:25:11;41.17;;;19.75;;
71475;SDS011;59286;59.274;17.974;2023-04-26T01:27:37;57.50;;;19.65;;
71475;SDS011;59286;59.274;17.974;2023-04-26T01:30:03;64.78;;;22.50;;
71475;SDS011;59286;59.274;17.974;2023-04-26T01:32:28;96.18;;;26.65;;
71475;SDS011;59286;59.274;17.974;2023-04-26T01:34:54;53.72;;;20.38;;
71475;SDS011;59286;59.274;17.974;2023-04-26T01:37:19;69.35;;;24.48;;
71475;SDS011;59286;59.274;17.974;2023-04-26T01:39:45;51.25;;;21.85;;
71475;SDS011;59286;59.274;17.974;2023-04-26T01:42:10;86.45;;;27.25;;
71475;SDS011;59286;59.274;17.974;2023-04-26T01:44:36;45.15;;;19.90;;
71475;SDS011;59286;59.274;17.974;2023-04-26T01:47:01;38.88;;;18.65;;
71475;SDS011;59286;59.274;17.974;2023-04-26T01:49:26;94.43;;;26.90;;
71475;SDS011;59286;59.274;17.974;2023-04-26T01:51:51;75.40;;;25.35;;
71475;SDS011;59286;59.274;17.974;2023-04-26T01:54:17;33.13;;;17.05;;
71475;SDS011;59286;59.274;17.974;2023-04-26T01:56:42;58.65;;;23.20;;
71475;SDS011;59286;59.274;17.974;2023-04-26T01:59:08;43.00;;;20.13;;
71475;SDS011;59286;59.274;17.974;2023-04-26T02:01:33;84.30;;;26.02;;
71475;SDS011;59286;59.274;17.974;2023-04-26T02:03:58;37.95;;;19.20;;
71475;SDS011;59286;59.274;17.974;2023-04-26T02:06:23;57.75;;;22.30;;
71475;SDS011;59286;59.274;17.974;2023-04-26T02:08:49;75.35;;;25.38;;
71475;SDS011;59286;59.274;17.974;2023-04-26T02:11:14;50.60;;;21.25;;
71475;SDS011;59286;59.274;17.974;2023-04-26T02:13:39;51.25;;;20.65;;
71475;SDS011;59286;59.274;17.974;2023-04-26T02:16:05;44.78;;;19.50;;
71475;SDS011;59286;59.274;17.974;2023-04-26T02:18:31;70.38;;;24.52;;
71475;SDS011;59286;59.274;17.974;2023-04-26T02:20:57;61.72;;;23.20;;
71475;SDS011;59286;59.274;17.974;2023-04-26T02:23:22;63.50;;;24.20;;
71475;SDS011;59286;59.274;17.974;2023-04-26T02:25:48;51.25;;;22.10;;
71475;SDS011;59286;59.274;17.974;2023-04-26T02:28:13;32.08;;;17.13;;
71475;SDS011;59286;59.274;17.974;2023-04-26T02:30:40;28.42;;;15.82;;
71475;SDS011;59286;59.274;17.974;2023-04-26T02:33:06;46.47;;;20.42;;
71475;SDS011;59286;59.274;17.974;2023-04-26T02:35:33;42.45;;;19.77;;
71475;SDS011;59286;59.274;17.974;2023-04-26T02:37:59;55.88;;;22.00;;
71475;SDS011;59286;59.274;17.974;2023-04-26T02:40:24;30.98;;;16.70;;
71475;SDS011;59286;59.274;17.974;2023-04-26T02:42:49;43.10;;;19.70;;
71475;SDS011;59286;59.274;17.974;2023-04-26T02:45:15;58.30;;;22.60;;
71475;SDS011;59286;59.274;17.974;2023-04-26T02:47:40;33.03;;;17.33;;
71475;SDS011;59286;59.274;17.974;2023-04-26T02:50:06;36.08;;;17.63;;
71475;SDS011;59286;59.274;17.974;2023-04-26T02:52:33;31.60;;;17.00;;
71475;SDS011;59286;59.274;17.974;2023-04-26T02:54:59;33.60;;;17.70;;
71475;SDS011;59286;59.274;17.974;2023-04-26T02:57:25;42.67;;;20.35;;
71475;SDS011;59286;59.274;17.974;2023-04-26T02:59:51;27.73;;;15.93;;
71475;SDS011;59286;59.274;17.974;2023-04-26T03:02:16;37.25;;;17.98;;
71475;SDS011;59286;59.274;17.974;2023-04-26T03:04:41;29.98;;;16.40;;
71475;SDS011;59286;59.274;17.974;2023-04-26T03:07:07;21.25;;;13.15;;
71475;SDS011;59286;59.274;17.974;2023-04-26T03:09:32;25.00;;;15.48;;
71475;SDS011;59286;59.274;17.974;2023-04-26T03:11:58;29.58;;;17.42;;
71475;SDS011;59286;59.274;17.974;2023-04-26T03:14:24;23.63;;;14.38;;
71475;SDS011;59286;59.274;17.974;2023-04-26T03:16:49;29.92;;;17.00;;
71475;SDS011;59286;59.274;17.974;2023-04-26T03:19:14;30.65;;;15.73;;
71475;SDS011;59286;59.274;17.974;2023-04-26T03:21:40;23.05;;;13.40;;
71475;SDS011;59286;59.274;17.974;2023-04-26T03:24:05;22.02;;;12.85;;
71475;SDS011;59286;59.274;17.974;2023-04-26T03:26:31;22.73;;;12.60;;
71475;SDS011;59286;59.274;17.974;2023-04-26T03:28:57;26.40;;;13.90;;
71475;SDS011;59286;59.274;17.974;2023-04-26T03:31:22;24.35;;;12.68;;
71475;SDS011;59286;59.274;17.974;2023-04-26T03:33:48;26.90;;;13.38;;
71475;SDS011;59286;59.274;17.974;2023-04-26T03:36:13;20.95;;;10.77;;
71475;SDS011;59286;59.274;17.974;2023-04-26T03:38:38;27.13;;;12.15;;
71475;SDS011;59286;59.274;17.974;2023-04-26T03:41:04;22.50;;;11.48;;
71475;SDS011;59286;59.274;17.974;2023-04-26T03:43:29;28.17;;;12.75;;
71475;SDS011;59286;59.274;17.974;2023-04-26T03:45:55;21.88;;;10.80;;
71475;SDS011;59286;59.274;17.974;2023-04-26T03:48:20;25.77;;;10.98;;
71475;SDS011;59286;59.274;17.974;2023-04-26T03:50:45;19.02;;;10.82;;
71475;SDS011;59286;59.274;17.974;2023-04-26T03:53:11;17.95;;;10.88;;
71475;SDS011;59286;59.274;17.974;2023-04-26T03:55:36;20.40;;;9.98;;
71475;SDS011;59286;59.274;17.974;2023-04-26T03:58:02;17.75;;;9.70;;
71475;SDS011;59286;59.274;17.974;2023-04-26T04:00:31;19.80;;;10.18;;
71475;SDS011;59286;59.274;17.974;2023-04-26T04:02:58;15.60;;;8.88;;
71475;SDS011;59286;59.274;17.974;2023-04-26T04:05:23;19.02;;;9.35;;
71475;SDS011;59286;59.274;17.974;2023-04-26T04:07:48;14.80;;;7.80;;
71475;SDS011;59286;59.274;17.974;2023-04-26T04:10:14;18.20;;;8.70;;
71475;SDS011;59286;59.274;17.974;2023-04-26T04:12:40;13.85;;;7.47;;
71475;SDS011;59286;59.274;17.974;2023-04-26T04:15:05;13.35;;;6.57;;
71475;SDS011;59286;59.274;17.974;2023-04-26T04:17:32;14.73;;;6.90;;
71475;SDS011;59286;59.274;17.974;2023-04-26T04:19:57;12.13;;;7.38;;
71475;SDS011;59286;59.274;17.974;2023-04-26T04:22:23;12.15;;;6.82;;
71475;SDS011;59286;59.274;17.974;2023-04-26T04:24:48;12.38;;;6.18;;
71475;SDS011;59286;59.274;17.974;2023-04-26T04:27:13;14.70;;;7.38;;
71475;SDS011;59286;59.274;17.974;2023-04-26T04:29:40;11.10;;;6.78;;
71475;SDS011;59286;59.274;17.974;2023-04-26T04:32:06;10.95;;;6.55;;
71475;SDS011;59286;59.274;17.974;2023-04-26T04:34:34;12.55;;;5.95;;
71475;SDS011;59286;59.274;17.974;2023-04-26T04:37:03;11.80;;;5.78;;
71475;SDS011;59286;59.274;17.974;2023-04-26T04:39:28;11.70;;;5.80;;
71475;SDS011;59286;59.274;17.974;2023-04-26T04:41:54;10.10;;;4.90;;
71475;SDS011;59286;59.274;17.974;2023-04-26T04:44:19;8.20;;;4.60;;
71475;SDS011;59286;59.274;17.974;2023-04-26T04:46:44;7.32;;;4.35;;
71475;SDS011;59286;59.274;17.974;2023-04-26T04:49:10;9.70;;;4.40;;
71475;SDS011;59286;59.274;17.974;2023-04-26T04:51:39;7.07;;;4.00;;
71475;SDS011;59286;59.274;17.974;2023-04-26T04:54:12;5.03;;;3.60;;
71475;SDS011;59286;59.274;17.974;2023-04-26T04:56:38;6.93;;;3.47;;
71475;SDS011;59286;59.274;17.974;2023-04-26T04:59:03;6.00;;;3.47;;
71475;SDS011;59286;59.274;17.974;2023-04-26T05:01:32;4.80;;;3.20;;
71475;SDS011;59286;59.274;17.974;2023-04-26T05:03:58;3.88;;;3.08;;
71475;SDS011;59286;59.274;17.974;2023-04-26T05:06:23;6.43;;;3.15;;
71475;SDS011;59286;59.274;17.974;2023-04-26T05:08:49;6.53;;;2.78;;
71475;SDS011;59286;59.274;17.974;2023-04-26T05:11:15;2.78;;;2.10;;
71475;SDS011;59286;59.274;17.974;2023-04-26T05:13:40;6.10;;;2.60;;
71475;SDS011;59286;59.274;17.974;2023-04-26T05:16:05;3.70;;;2.58;;
71475;SDS011;59286;59.274;17.974;2023-04-26T05:18:31;3.08;;;2.10;;
71475;SDS011;59286;59.274;17.974;2023-04-26T05:20:56;4.10;;;2.20;;
71475;SDS011;59286;59.274;17.974;2023-04-26T05:23:22;2.58;;;1.95;;
71475;SDS011;59286;59.274;17.974;2023-04-26T05:25:47;2.63;;;2.00;;
71475;SDS011;59286;59.274;17.974;2023-04-26T05:28:12;2.28;;;1.70;;
71475;SDS011;59286;59.274;17.974;2023-04-26T05:30:38;2.03;;;1.60;;
71475;SDS011;59286;59.274;17.974;2023-04-26T05:33:03;2.05;;;1.40;;
71475;SDS011;59286;59.274;17.974;2023-04-26T05:35:29;2.05;;;1.40;;
71475;SDS011;59286;59.274;17.974;2023-04-26T05:37:54;1.38;;;1.20;;
71475;SDS011;59286;59.274;17.974;2023-04-26T05:40:20;1.25;;;1.15;;
71475;SDS011;59286;59.274;17.974;2023-04-26T05:42:45;1.20;;;0.90;;
71475;SDS011;59286;59.274;17.974;2023-04-26T05:45:11;1.20;;;1.08;;
71475;SDS011;59286;59.274;17.974;2023-04-26T05:47:36;0.98;;;0.80;;
71475;SDS011;59286;59.274;17.974;2023-04-26T05:50:02;0.73;;;0.70;;
71475;SDS011;59286;59.274;17.974;2023-04-26T05:52:27;3.15;;;0.90;;
71475;SDS011;59286;59.274;17.974;2023-04-26T05:54:53;0.73;;;0.55;;
71475;SDS011;59286;59.274;17.974;2023-04-26T05:57:18;0.88;;;0.57;;
71475;SDS011;59286;59.274;17.974;2023-04-26T05:59:43;0.88;;;0.50;;
71475;SDS011;59286;59.274;17.974;2023-04-26T06:02:08;0.63;;;0.38;;
71475;SDS011;59286;59.274;17.974;2023-04-26T06:04:34;0.43;;;0.40;;
71475;SDS011;59286;59.274;17.974;2023-04-26T06:06:59;0.95;;;0.40;;
71475;SDS011;59286;59.274;17.974;2023-04-26T06:09:25;1.90;;;0.30;;
71475;SDS011;59286;59.274;17.974;2023-04-26T06:11:51;1.88;;;0.50;;
71475;SDS011;59286;59.274;17.974;2023-04-26T06:14:16;1.20;;;0.50;;
71475;SDS011;59286;59.274;17.974;2023-04-26T06:16:41;2.00;;;0.40;;
71475;SDS011;59286;59.274;17.974;2023-04-26T06:19:07;2.40;;;0.70;;
71475;SDS011;59286;59.274;17.974;2023-04-26T06:21:32;2.50;;;0.40;;
71475;SDS011;59286;59.274;17.974;2023-04-26T06:23:57;2.45;;;0.50;;
71475;SDS011;59286;59.274;17.974;2023-04-26T06:26:23;0.93;;;0.40;;
71475;SDS011;59286;59.274;17.974;2023-04-26T06:28:48;0.45;;;0.35;;
71475;SDS011;59286;59.274;17.974;2023-04-26T06:31:13;1.75;;;0.20;;
71475;SDS011;59286;59.274;17.974;2023-04-26T06:33:39;0.88;;;0.20;;
71475;SDS011;59286;59.274;17.974;2023-04-26T06:36:04;0.28;;;0.20;;
71475;SDS011;59286;59.274;17.974;2023-04-26T06:38:30;2.83;;;0.38;;
71475;SDS011;59286;59.274;17.974;2023-04-26T06:40:55;1.63;;;0.25;;
71475;SDS011;59286;59.274;17.974;2023-04-26T06:43:20;1.77;;;0.30;;
71475;SDS011;59286;59.274;17.974;2023-04-26T06:45:46;1.00;;;0.25;;
71475;SDS011;59286;59.274;17.974;2023-04-26T06:48:12;0.88;;;0.22;;
71475;SDS011;59286;59.274;17.974;2023-04-26T06:50:37;0.40;;;0.30;;
71475;SDS011;59286;59.274;17.974;2023-04-26T06:53:04;1.52;;;0.30;;
71475;SDS011;59286;59.274;17.974;2023-04-26T06:55:29;0.50;;;0.30;;
71475;SDS011;59286;59.274;17.974;2023-04-26T06:57:55;0.47;;;0.20;;
71475;SDS011;59286;59.274;17.974;2023-04-26T07:00:20;1.60;;;0.32;;
71475;SDS011;59286;59.274;17.974;2023-04-26T07:02:46;2.63;;;0.17;;
71475;SDS011;59286;59.274;17.974;2023-04-26T07:05:11;4.13;;;0.20;;
71475;SDS011;59286;59.274;17.974;2023-04-26T07:07:38;2.53;;;0.20;;
71475;SDS011;59286;59.274;17.974;2023-04-26T07:10:04;0.57;;;0.20;;
71475;SDS011;59286;59.274;17.974;2023-04-26T07:12:29;0.40;;;0.10;;
71475;SDS011;59286;59.274;17.974;2023-04-26T07:14:56;0.35;;;0.10;;
71475;SDS011;59286;59.274;17.974;2023-04-26T07:17:21;1.10;;;0.20;;
71475;SDS011;59286;59.274;17.974;2023-04-26T07:19:46;4.03;;;0.30;;
71475;SDS011;59286;59.274;17.974;2023-04-26T07:22:12;0.60;;;0.20;;
71475;SDS011;59286;59.274;17.974;2023-04-26T07:24:37;1.08;;;0.20;;
71475;SDS011;59286;59.274;17.974;2023-04-26T07:27:02;3.13;;;0.20;;
71475;SDS011;59286;59.274;17.974;2023-04-26T07:29:28;2.47;;;0.20;;
71475;SDS011;59286;59.274;17.974;2023-04-26T07:31:53;0.45;;;0.30;;
71475;SDS011;59286;59.274;17.974;2023-04-26T07:34:19;0.30;;;0.20;;
71475;SDS011;59286;59.274;17.974;2023-04-26T07:36:44;0.60;;;0.20;;
71475;SDS011;59286;59.274;17.974;2023-04-26T07:39:09;0.43;;;0.30;;
71475;SDS011;59286;59.274;17.974;2023-04-26T07:41:35;0.60;;;0.20;;
71475;SDS011;59286;59.274;17.974;2023-04-26T07:44:01;0.28;;;0.22;;
71475;SDS011;59286;59.274;17.974;2023-04-26T07:46:27;0.17;;;0.13;;
71475;SDS011;59286;59.274;17.974;2023-04-26T07:48:52;0.10;;;0.10;;
71475;SDS011;59286;59.274;17.974;2023-04-26T07:51:17;0.63;;;0.10;;
71475;SDS011;59286;59.274;17.974;2023-04-26T07:53:43;0.82;;;0.20;;
71475;SDS011;59286;59.274;17.974;2023-04-26T07:56:08;2.33;;;0.20;;
71475;SDS011;59286;59.274;17.974;2023-04-26T07:58:34;0.40;;;0.20;;
71475;SDS011;59286;59.274;17.974;2023-04-26T08:01:01;0.40;;;0.25;;
71475;SDS011;59286;59.274;17.974;2023-04-26T08:03:27;0.20;;;0.15;;
71475;SDS011;59286;59.274;17.974;2023-04-26T08:05:53;0.65;;;0.20;;
71475;SDS011;59286;59.274;17.974;2023-04-26T08:08:19;0.80;;;0.20;;
71475;SDS011;59286;59.274;17.974;2023-04-26T08:10:44;0.98;;;0.20;;
71475;SDS011;59286;59.274;17.974;2023-04-26T08:13:10;2.40;;;0.20;;
71475;SDS011;59286;59.274;17.974;2023-04-26T08:15:35;0.98;;;0.30;;
71475;SDS011;59286;59.274;17.974;2023-04-26T08:18:01;0.32;;;0.13;;
71475;SDS011;59286;59.274;17.974;2023-04-26T08:20:26;0.90;;;0.10;;
71475;SDS011;59286;59.274;17.974;2023-04-26T08:22:55;0.30;;;0.00;;
71475;SDS011;59286;59.274;17.974;2023-04-26T08:25:21;0.00;;;0.00;;
71475;SDS011;59286;59.274;17.974;2023-04-26T08:27:47;0.32;;;0.00;;
71475;SDS011;59286;59.274;17.974;2023-04-26T08:30:13;0.30;;;0.10;;
71475;SDS011;59286;59.274;17.974;2023-04-26T08:32:38;0.93;;;0.10;;
71475;SDS011;59286;59.274;17.974;2023-04-26T08:35:04;0.00;;;0.00;;
71475;SDS011;59286;59.274;17.974;2023-04-26T08:37:30;0.10;;;0.00;;
71475;SDS011;59286;59.274;17.974;2023-04-26T08:39:55;0.10;;;0.10;;
71475;SDS011;59286;59.274;17.974;2023-04-26T08:42:21;1.58;;;0.10;;
71475;SDS011;59286;59.274;17.974;2023-04-26T08:44:51;0.57;;;0.20;;
71475;SDS011;59286;59.274;17.974;2023-04-26T08:47:18;0.32;;;0.10;;
71475;SDS011;59286;59.274;17.974;2023-04-26T08:49:59;0.60;;;0.10;;
71475;SDS011;59286;59.274;17.974;2023-04-26T08:52:28;0.70;;;0.10;;
71475;SDS011;59286;59.274;17.974;2023-04-26T08:54:55;2.10;;;0.10;;
71475;SDS011;59286;59.274;17.974;2023-04-26T08:57:21;1.25;;;0.20;;
71475;SDS011;59286;59.274;17.974;2023-04-26T08:59:48;0.15;;;0.10;;
71475;SDS011;59286;59.274;17.974;2023-04-26T09:02:19;1.23;;;0.10;;
71475;SDS011;59286;59.274;17.974;2023-04-26T09:04:45;0.40;;;0.10;;
71475;SDS011;59286;59.274;17.974;2023-04-26T09:07:30;1.17;;;0.13;;
71475;SDS011;59286;59.274;17.974;2023-04-26T09:14:49;0.03;;;0.00;;
71475;SDS011;59286;59.274;17.974;2023-04-26T09:22:32;0.75;;;0.00;;
71475;SDS011;59286;59.274;17.974;2023-04-26T09:25:02;0.00;;;0.00;;
71475;SDS011;59286;59.274;17.974;2023-04-26T09:27:38;0.10;;;0.00;;
71475;SDS011;59286;59.274;17.974;2023-04-26T09:30:12;0.52;;;0.08;;
71475;SDS011;59286;59.274;17.974;2023-04-26T09:35:22;0.70;;;0.15;;
71475;SDS011;59286;59.274;17.974;2023-04-26T09:38:01;0.60;;;0.20;;
71475;SDS011;59286;59.274;17.974;2023-04-26T09:40:28;0.05;;;0.00;;
71475;SDS011;59286;59.274;17.974;2023-04-26T09:43:08;3.05;;;0.17;;
71475;SDS011;59286;59.274;17.974;2023-04-26T09:45:45;2.53;;;0.30;;
71475;SDS011;59286;59.274;17.974;2023-04-26T09:48:21;1.25;;;0.30;;
71475;SDS011;59286;59.274;17.974;2023-04-26T09:51:08;0.30;;;0.20;;
71475;SDS011;59286;59.274;17.974;2023-04-26T09:53:39;0.40;;;0.13;;
71475;SDS011;59286;59.274;17.974;2023-04-26T09:56:11;1.73;;;0.40;;
71475;SDS011;59286;59.274;17.974;2023-04-26T10:01:15;0.88;;;0.20;;
71475;SDS011;59286;59.274;17.974;2023-04-26T10:03:41;0.38;;;0.17;;
71475;SDS011;59286;59.274;17.974;2023-04-26T10:06:07;0.10;;;0.10;;
71475;SDS011;59286;59.274;17.974;2023-04-26T10:08:33;0.22;;;0.10;;
71475;SDS011;59286;59.274;17.974;2023-04-26T10:11:00;0.10;;;0.05;;
71475;SDS011;59286;59.274;17.974;2023-04-26T10:13:30;1.50;;;0.10;;
71475;SDS011;59286;59.274;17.974;2023-04-26T10:15:56;0.55;;;0.20;;
71475;SDS011;59286;59.274;17.974;2023-04-26T10:18:23;0.63;;;0.13;;
71475;SDS011;59286;59.274;17.974;2023-04-26T10:20:49;2.17;;;0.13;;
71475;SDS011;59286;59.274;17.974;2023-04-26T10:23:21;0.20;;;0.10;;
71475;SDS011;59286;59.274;17.974;2023-04-26T10:25:51;0.25;;;0.10;;
71475;SDS011;59286;59.274;17.974;2023-04-26T10:28:17;0.10;;;0.10;;
71475;SDS011;59286;59.274;17.974;2023-04-26T10:31:03;0.20;;;0.10;;
71475;SDS011;59286;59.274;17.974;2023-04-26T10:33:29;3.50;;;0.20;;
71475;SDS011;59286;59.274;17.974;2023-04-26T10:36:13;1.02;;;0.10;;
71475;SDS011;59286;59.274;17.974;2023-04-26T10:38:39;0.52;;;0.10;;
71475;SDS011;59286;59.274;17.974;2023-04-26T10:41:39;1.05;;;0.20;;
71475;SDS011;59286;59.274;17.974;2023-04-26T10:44:00;1.95;;;0.20;;
71475;SDS011;59286;59.274;17.974;2023-04-26T10:47:34;1.05;;;0.45;;
71475;SDS011;59286;59.274;17.974;2023-04-26T10:50:10;1.27;;;0.20;;
71475;SDS011;59286;59.274;17.974;2023-04-26T10:52:37;1.48;;;0.22;;
71475;SDS011;59286;59.274;17.974;2023-04-26T10:55:38;0.10;;;0.10;;
71475;SDS011;59286;59.274;17.974;2023-04-26T10:58:24;0.35;;;0.10;;
71475;SDS011;59286;59.274;17.974;2023-04-26T11:01:16;0.80;;;0.10;;
71475;SDS011;59286;59.274;17.974;2023-04-26T11:06:20;0.10;;;0.10;;
71475;SDS011;59286;59.274;17.974;2023-04-26T11:08:47;0.20;;;0.10;;
71475;SDS011;59286;59.274;17.974;2023-04-26T11:11:14;0.10;;;0.10;;
71475;SDS011;59286;59.274;17.974;2023-04-26T11:13:43;2.85;;;0.20;;
71475;SDS011;59286;59.274;17.974;2023-04-26T11:16:10;0.40;;;0.20;;
71475;SDS011;59286;59.274;17.974;2023-04-26T11:18:38;5.97;;;0.38;;
71475;SDS011;59286;59.274;17.974;2023-04-26T11:21:04;0.45;;;0.20;;
71475;SDS011;59286;59.274;17.974;2023-04-26T11:23:31;0.20;;;0.10;;
71475;SDS011;59286;59.274;17.974;2023-04-26T11:25:57;0.35;;;0.17;;
71475;SDS011;59286;59.274;17.974;2023-04-26T11:28:23;0.13;;;0.13;;
71475;SDS011;59286;59.274;17.974;2023-04-26T11:30:48;0.57;;;0.20;;
71475;SDS011;59286;59.274;17.974;2023-04-26T11:33:15;0.20;;;0.13;;
71475;SDS011;59286;59.274;17.974;2023-04-26T11:35:47;1.85;;;0.20;;
71475;SDS011;59286;59.274;17.974;2023-04-26T11:38:16;2.33;;;0.30;;
71475;SDS011;59286;59.274;17.974;2023-04-26T11:40:42;1.65;;;0.30;;
71475;SDS011;59286;59.274;17.974;2023-04-26T11:43:08;0.20;;;0.20;;
71475;SDS011;59286;59.274;17.974;2023-04-26T11:45:35;0.28;;;0.20;;
71475;SDS011;59286;59.274;17.974;2023-04-26T11:48:02;2.83;;;0.30;;
71475;SDS011;59286;59.274;17.974;2023-04-26T11:50:30;2.42;;;0.30;;
71475;SDS011;59286;59.274;17.974;2023-04-26T11:52:58;0.98;;;0.20;;
71475;SDS011;59286;59.274;17.974;2023-04-26T11:55:28;2.70;;;0.22;;
71475;SDS011;59286;59.274;17.974;2023-04-26T11:57:57;0.20;;;0.20;;
71475;SDS011;59286;59.274;17.974;2023-04-26T12:00:23;0.40;;;0.30;;
71475;SDS011;59286;59.274;17.974;2023-04-26T12:02:49;2.35;;;0.30;;
71475;SDS011;59286;59.274;17.974;2023-04-26T12:05:23;0.60;;;0.22;;
71475;SDS011;59286;59.274;17.974;2023-04-26T12:07:49;0.30;;;0.20;;
71475;SDS011;59286;59.274;17.974;2023-04-26T12:10:17;0.30;;;0.30;;
71475;SDS011;59286;59.274;17.974;2023-04-26T12:12:48;0.30;;;0.30;;
71475;SDS011;59286;59.274;17.974;2023-04-26T12:15:18;0.80;;;0.38;;
71475;SDS011;59286;59.274;17.974;2023-04-26T12:17:56;0.40;;;0.20;;
71475;SDS011;59286;59.274;17.974;2023-04-26T12:20:34;0.20;;;0.20;;
71475;SDS011;59286;59.274;17.974;2023-04-26T12:23:07;0.40;;;0.30;;
71475;SDS011;59286;59.274;17.974;2023-04-26T12:25:35;1.08;;;0.25;;
71475;SDS011;59286;59.274;17.974;2023-04-26T12:28:03;1.35;;;0.40;;
71475;SDS011;59286;59.274;17.974;2023-04-26T12:30:32;3.15;;;0.40;;
71475;SDS011;59286;59.274;17.974;2023-04-26T12:32:57;6.57;;;0.40;;
71475;SDS011;59286;59.274;17.974;2023-04-26T12:35:23;2.75;;;0.30;;
71475;SDS011;59286;59.274;17.974;2023-04-26T12:37:49;1.58;;;0.20;;
71475;SDS011;59286;59.274;17.974;2023-04-26T12:40:17;0.52;;;0.30;;
71475;SDS011;59286;59.274;17.974;2023-04-26T12:42:44;0.57;;;0.40;;
71475;SDS011;59286;59.274;17.974;2023-04-26T12:45:11;0.75;;;0.30;;
71475;SDS011;59286;59.274;17.974;2023-04-26T12:47:36;0.30;;;0.30;;
71475;SDS011;59286;59.274;17.974;2023-04-26T12:50:02;0.25;;;0.20;;
71475;SDS011;59286;59.274;17.974;2023-04-26T12:52:29;0.63;;;0.35;;
71475;SDS011;59286;59.274;17.974;2023-04-26T12:54:54;3.90;;;0.40;;
71475;SDS011;59286;59.274;17.974;2023-04-26T12:57:20;1.17;;;0.30;;
71475;SDS011;59286;59.274;17.974;2023-04-26T12:59:45;0.20;;;0.20;;
71475;SDS011;59286;59.274;17.974;2023-04-26T13:02:11;0.40;;;0.30;;
71475;SDS011;59286;59.274;17.974;2023-04-26T13:04:36;0.28;;;0.20;;
71475;SDS011;59286;59.274;17.974;2023-04-26T13:07:02;0.80;;;0.30;;
71475;SDS011;59286;59.274;17.974;2023-04-26T13:09:27;0.52;;;0.20;;
71475;SDS011;59286;59.274;17.974;2023-04-26T13:11:53;1.55;;;0.30;;
71475;SDS011;59286;59.274;17.974;2023-04-26T13:14:18;0.20;;;0.20;;
71475;SDS011;59286;59.274;17.974;2023-04-26T13:16:44;1.90;;;0.20;;
71475;SDS011;59286;59.274;17.974;2023-04-26T13:19:09;0.90;;;0.45;;
71475;SDS011;59286;59.274;17.974;2023-04-26T13:21:35;0.77;;;0.30;;
71475;SDS011;59286;59.274;17.974;2023-04-26T13:24:01;1.48;;;0.35;;
71475;SDS011;59286;59.274;17.974;2023-04-26T13:26:27;0.65;;;0.20;;
71475;SDS011;59286;59.274;17.974;2023-04-26T13:28:52;0.45;;;0.28;;
71475;SDS011;59286;59.274;17.974;2023-04-26T13:31:18;6.03;;;4.80;;
71475;SDS011;59286;59.274;17.974;2023-04-26T13:33:44;9.15;;;7.13;;
71475;SDS011;59286;59.274;17.974;2023-04-26T13:36:13;0.80;;;0.60;;
71475;SDS011;59286;59.274;17.974;2023-04-26T13:38:39;2.65;;;0.30;;
71475;SDS011;59286;59.274;17.974;2023-04-26T13:41:05;0.88;;;0.40;;
71475;SDS011;59286;59.274;17.974;2023-04-26T13:43:31;1.17;;;0.50;;
71475;SDS011;59286;59.274;17.974;2023-04-26T13:45:57;0.50;;;0.45;;
71475;SDS011;59286;59.274;17.974;2023-04-26T13:48:22;2.83;;;0.50;;
71475;SDS011;59286;59.274;17.974;2023-04-26T13:50:47;2.53;;;0.30;;
71475;SDS011;59286;59.274;17.974;2023-04-26T13:53:12;1.90;;;0.50;;
71475;SDS011;59286;59.274;17.974;2023-04-26T13:55:38;1.10;;;0.82;;
71475;SDS011;59286;59.274;17.974;2023-04-26T13:58:03;1.17;;;0.60;;
71475;SDS011;59286;59.274;17.974;2023-04-26T14:00:28;1.88;;;0.50;;
71475;SDS011;59286;59.274;17.974;2023-04-26T14:02:54;1.92;;;1.10;;
71475;SDS011;59286;59.274;17.974;2023-04-26T14:05:20;2.30;;;0.50;;
71475;SDS011;59286;59.274;17.974;2023-04-26T14:07:45;2.63;;;0.60;;
71475;SDS011;59286;59.274;17.974;2023-04-26T14:10:10;3.78;;;1.20;;
71475;SDS011;59286;59.274;17.974;2023-04-26T14:12:36;2.55;;;2.33;;
71475;SDS011;59286;59.274;17.974;2023-04-26T14:15:01;3.15;;;1.42;;
71475;SDS011;59286;59.274;17.974;2023-04-26T14:17:29;0.60;;;0.38;;
71475;SDS011;59286;59.274;17.974;2023-04-26T14:19:56;0.52;;;0.52;;
71475;SDS011;59286;59.274;17.974;2023-04-26T14:22:21;0.80;;;0.70;;
71475;SDS011;59286;59.274;17.974;2023-04-26T14:24:47;0.65;;;0.35;;
71475;SDS011;59286;59.274;17.974;2023-04-26T14:27:13;0.90;;;0.40;;
71475;SDS011;59286;59.274;17.974;2023-04-26T14:29:38;0.75;;;0.30;;
71475;SDS011;59286;59.274;17.974;2023-04-26T14:32:03;1.33;;;0.30;;
71475;SDS011;59286;59.274;17.974;2023-04-26T14:34:29;0.32;;;0.28;;
71475;SDS011;59286;59.274;17.974;2023-04-26T14:36:54;3.03;;;0.45;;
71475;SDS011;59286;59.274;17.974;2023-04-26T14:39:25;2.00;;;0.40;;
71475;SDS011;59286;59.274;17.974;2023-04-26T14:41:50;0.65;;;0.50;;
71475;SDS011;59286;59.274;17.974;2023-04-26T14:44:16;1.77;;;1.13;;
71475;SDS011;59286;59.274;17.974;2023-04-26T14:46:41;1.48;;;0.32;;